Time;durP1;ratioP1;P1;durP2;ratioP2;P2;SDS_P1;SDS_P2;PMS_P1;PMS_P2;Temp;Humidity;BMP_temperature;BMP_pressure;BME280_temperature;BME280_humidity;BME280_pressure;Samples;Min_cycle;Max_cycle;Signal;HPM_P1;HPM_P2
2023/04/16 00:02:10;;;;;;;2.93;1.97;;;;;;;7.08;99.92;102093.03;5074498;28;20032;-86
2023/04/16 00:04:35;;;;;;;4.10;2.10;;;;;;;7.09;99.36;102092.19;5074206;28;20358;-85
2023/04/16 00:07:01;;;;;;;3.90;2.20;;;;;;;7.11;99.19;102092.22;5074374;28;20552;-86
2023/04/16 00:09:26;;;;;;;3.27;2.10;;;;;;;7.10;98.70;102086.19;5073990;28;20115;-86
2023/04/16 00:11:51;;;;;;;3.00;2.10;;;;;;;7.10;98.92;102091.34;5073239;28;20028;-86
2023/04/16 00:14:17;;;;;;;4.80;2.40;;;;;;;7.09;99.77;102091.34;5074781;28;20078;-86
2023/04/16 00:16:42;;;;;;;4.63;2.33;;;;;;;7.10;99.92;102098.22;5074448;28;20021;-85
2023/04/16 00:19:07;;;;;;;3.23;2.27;;;;;;;7.09;99.21;102091.34;5073817;28;20077;-85
2023/04/16 00:21:32;;;;;;;3.03;2.10;;;;;;;7.12;98.84;102091.38;5073176;28;20119;-86
2023/04/16 00:23:58;;;;;;;3.67;2.10;;;;;;;7.12;99.25;102091.38;5074082;28;20033;-85
2023/04/16 00:26:23;;;;;;;4.50;2.40;;;;;;;7.10;100.00;102087.88;5073279;28;20548;-85
2023/04/16 00:28:48;;;;;;;4.47;2.43;;;;;;;7.10;99.69;102087.88;5074568;28;20027;-86
2023/04/16 00:31:14;;;;;;;4.07;2.40;;;;;;;7.11;99.80;102095.69;5074237;28;20044;-85
2023/04/16 00:33:39;;;;;;;5.43;2.60;;;;;;;7.12;100.00;102099.13;5073086;28;20437;-85
2023/04/16 00:36:05;;;;;;;4.00;2.30;;;;;;;7.15;100.00;102093.16;5065786;28;20025;-85
2023/04/16 00:38:31;;;;;;;9.70;3.57;;;;;;;7.07;100.00;102088.72;5073602;28;20060;-85
2023/04/16 00:40:57;;;;;;;6.80;3.05;;;;;;;7.10;100.00;102088.78;5073730;28;20095;-85
2023/04/16 00:43:24;;;;;;;6.07;2.97;;;;;;;7.09;100.00;102093.91;5074317;28;20515;-84
2023/04/16 00:45:50;;;;;;;;;;;;;;;7.09;100.00;102092.19;5074885;28;20028;-85
2023/04/16 00:48:15;;;;;;;6.80;3.17;;;;;;;7.07;100.00;102088.72;5073567;28;19942;-85
2023/04/16 00:50:41;;;;;;;6.60;3.00;;;;;;;7.08;100.00;102082.72;5073231;28;20035;-86
2023/04/16 00:53:07;;;;;;;10.37;3.63;;;;;;;7.08;100.00;102087.00;5073035;28;20465;-85
2023/04/16 00:55:32;;;;;;;5.37;3.00;;;;;;;7.02;100.00;102080.03;5072871;28;20024;-85
2023/04/16 00:57:58;;;;;;;5.30;3.00;;;;;;;7.08;100.00;102092.19;5073843;28;20417;-85
2023/04/16 01:00:24;;;;;;;5.50;3.10;;;;;;;7.09;100.00;102087.03;5073652;28;20469;-84
2023/04/16 01:02:50;;;;;;;9.00;4.22;;;;;;;7.09;100.00;102087.03;5072940;28;20067;-86
2023/04/16 01:05:15;;;;;;;8.38;4.10;;;;;;;7.07;100.00;102086.13;5073467;28;20048;-85
2023/04/16 01:07:40;;;;;;;6.67;3.70;;;;;;;7.05;100.00;102090.38;5072919;28;20480;-85
2023/04/16 01:10:06;;;;;;;6.87;3.47;;;;;;;7.08;100.00;102087.00;5072528;28;20384;-85
2023/04/16 01:12:31;;;;;;;5.93;3.67;;;;;;;7.07;100.00;102083.53;5072865;28;20024;-85
2023/04/16 01:14:59;;;;;;;5.80;3.65;;;;;;;7.08;100.00;102081.84;5072922;28;20126;-84
2023/04/16 01:17:25;;;;;;;5.95;3.47;;;;;;;7.09;100.00;102089.63;5072977;28;20479;-85
2023/04/16 01:19:52;;;;;;;6.37;3.50;;;;;;;7.09;100.00;102078.44;5073071;28;20056;-86
2023/04/16 01:22:17;;;;;;;6.50;3.15;;;;;;;7.09;100.00;102074.13;5072636;28;20221;-85
2023/04/16 01:24:44;;;;;;;6.00;3.40;;;;;;;7.10;100.00;102081.03;5072110;28;20495;-86
2023/04/16 01:27:09;;;;;;;5.45;3.25;;;;;;;7.13;100.00;102082.78;5073431;28;20103;-85
2023/04/16 01:29:34;;;;;;;6.87;3.47;;;;;;;7.14;100.00;102083.69;5072187;28;20112;-86
2023/04/16 01:32:03;;;;;;;4.43;3.43;;;;;;;7.11;100.00;102079.31;5073969;28;20027;-86
2023/04/16 01:34:28;;;;;;;9.90;4.03;;;;;;;7.06;100.00;102074.06;5089170;28;20028;-85
2023/04/16 01:36:53;;;;;;;6.93;4.00;;;;;;;7.15;100.00;102086.28;5092750;28;20024;-86
2023/04/16 01:39:19;;;;;;;9.23;3.90;;;;;;;7.13;100.00;102087.09;5093450;28;20110;-85
2023/04/16 01:41:44;;;;;;;6.70;3.63;;;;;;;7.09;100.00;102083.59;5093065;28;20028;-86
2023/04/16 01:44:09;;;;;;;6.77;3.50;;;;;;;7.13;100.00;102092.25;5092097;28;20016;-85
2023/04/16 01:46:36;;;;;;;6.30;3.60;;;;;;;7.12;100.00;102086.22;5092149;28;20054;-86
2023/04/16 01:49:01;;;;;;;8.35;4.15;;;;;;;7.14;100.00;102081.97;5092872;28;20094;-86
2023/04/16 01:51:27;;;;;;;8.23;4.13;;;;;;;7.14;100.00;102089.69;5092148;28;20468;-85
2023/04/16 01:53:53;;;;;;;8.27;4.23;;;;;;;7.13;100.00;102081.94;5092780;28;20063;-85
2023/04/16 01:56:18;;;;;;;6.63;3.80;;;;;;;7.16;100.00;102092.28;5092734;28;20468;-85
2023/04/16 01:58:45;;;;;;;5.47;3.25;;;;;;;7.16;100.00;102098.34;5091705;28;20024;-86
2023/04/16 02:01:11;;;;;;;7.10;3.65;;;;;;;7.16;100.00;102095.78;5092652;28;20028;-85
2023/04/16 02:03:37;;;;;;;7.17;3.83;;;;;;;7.13;100.00;102087.09;5092350;28;20066;-85
2023/04/16 02:06:02;;;;;;;10.67;4.50;;;;;;;7.14;100.00;102099.16;5092333;28;20107;-85
2023/04/16 02:08:28;;;;;;;6.37;3.70;;;;;;;7.16;100.00;102095.78;5092292;28;20020;-85
2023/04/16 02:10:55;;;;;;;7.73;3.60;;;;;;;7.14;100.00;102089.69;5092993;28;20016;-85
2023/04/16 02:13:20;;;;;;;;;;;;;;;7.17;100.00;102100.09;5092417;28;20481;-85
2023/04/16 02:15:47;;;;;;;13.57;4.50;;;;;;;7.15;100.00;102094.03;5093018;28;19942;-86
2023/04/16 02:18:12;;;;;;;11.40;4.00;;;;;;;7.13;100.00;102087.97;5092781;28;20036;-86
2023/04/16 02:20:42;;;;;;;10.52;4.30;;;;;;;7.14;100.00;102086.25;5091818;28;20107;-86
2023/04/16 02:23:09;;;;;;;9.98;4.65;;;;;;;7.09;100.00;102089.63;5092534;28;20426;-86
2023/04/16 02:25:41;;;;;;;9.93;4.32;;;;;;;7.11;100.00;102079.31;5092067;28;20694;-86
2023/04/16 02:28:11;;;;;;;8.63;4.22;;;;;;;7.13;100.00;102079.34;5092729;28;20369;-86
2023/04/16 02:30:37;;;;;;;11.80;4.65;;;;;;;7.10;100.00;102078.44;5092500;28;20050;-86
2023/04/16 02:33:04;;;;;;;13.52;5.00;;;;;;;7.09;100.00;102091.34;5091867;28;20028;-86
2023/04/16 02:35:33;;;;;;;;;;;;;;;7.04;100.00;102083.47;5094257;28;20020;-86
2023/04/16 02:37:59;;;;;;;12.15;4.40;;;;;;;7.03;100.00;102086.94;5096381;28;20376;-86
2023/04/16 02:40:24;;;;;;;9.60;3.90;;;;;;;7.04;100.00;102082.63;5095721;28;20034;-86
2023/04/16 02:42:53;;;;;;;10.67;3.97;;;;;;;7.06;100.00;102088.69;5096439;28;20024;-86
2023/04/16 02:45:20;;;;;;;11.98;4.30;;;;;;;7.04;100.00;102092.94;5096605;28;20090;-86
2023/04/16 02:47:45;;;;;;;13.93;4.30;;;;;;;7.00;100.00;102084.28;5095780;28;20024;-86
2023/04/16 02:50:10;;;;;;;12.43;4.80;;;;;;;7.01;100.00;102093.78;5096250;28;20031;-85
2023/04/16 02:52:36;;;;;;;10.73;4.10;;;;;;;7.03;100.00;102089.50;5096250;28;20036;-85
2023/04/16 02:55:01;;;;;;;10.17;4.53;;;;;;;7.05;100.00;102100.72;5095513;28;20458;-87
2023/04/16 02:57:26;;;;;;;13.73;4.53;;;;;;;6.98;100.00;102085.09;5096146;28;20059;-86
2023/04/16 02:59:52;;;;;;;14.07;5.40;;;;;;;7.00;100.00;102097.19;5096296;28;20123;-85
2023/04/16 03:02:17;;;;;;;11.23;4.80;;;;;;;6.99;100.00;102098.03;5095417;28;20035;-85
2023/04/16 03:04:42;;;;;;;11.07;4.37;;;;;;;6.98;100.00;102087.69;5095895;28;20024;-86
2023/04/16 03:07:11;;;;;;;13.73;5.10;;;;;;;7.03;100.00;102102.41;5096204;28;20170;-87
2023/04/16 03:09:37;;;;;;;15.00;6.05;;;;;;;6.96;100.00;102105.69;5095142;28;20103;-86
2023/04/16 03:12:02;;;;;;;15.70;5.90;;;;;;;6.99;100.00;102099.72;5096351;28;20141;-86
2023/04/16 03:14:28;;;;;;;12.75;5.00;;;;;;;6.94;100.00;102095.34;5095987;28;20104;-85
2023/04/16 03:16:53;;;;;;;14.87;5.30;;;;;;;6.97;100.00;102107.44;5095311;28;20025;-86
2023/04/16 03:19:18;;;;;;;16.02;6.60;;;;;;;6.98;100.00;102116.06;5095425;28;20483;-86
2023/04/16 03:21:44;;;;;;;16.23;6.33;;;;;;;6.91;100.00;102113.34;5094536;28;20035;-86
2023/04/16 03:24:09;;;;;;;14.35;6.20;;;;;;;6.92;100.00;102107.34;5095936;28;20080;-86
2023/04/16 03:26:34;;;;;;;16.07;6.57;;;;;;;6.94;100.00;102117.69;5095611;28;20476;-86
2023/04/16 03:29:01;;;;;;;15.93;7.10;;;;;;;6.91;100.00;102112.50;5095011;28;20436;-86
2023/04/16 03:31:26;;;;;;;16.58;7.50;;;;;;;6.94;100.00;102113.41;5095054;28;20054;-86
2023/04/16 03:33:52;;;;;;;18.60;7.50;;;;;;;6.91;100.00;102118.50;5095608;28;20067;-86
2023/04/16 03:36:17;;;;;;;14.85;6.50;;;;;;;6.94;100.00;102113.41;5094955;28;20059;-86
2023/04/16 03:38:42;;;;;;;16.93;7.70;;;;;;;6.99;100.00;102117.78;5095238;28;20082;-86
2023/04/16 03:41:07;;;;;;;16.87;7.20;;;;;;;6.99;100.00;102117.78;5095604;28;20035;-86
2023/04/16 03:43:33;;;;;;;17.10;7.50;;;;;;;6.95;100.00;102119.44;5094068;28;20032;-86
2023/04/16 03:45:58;;;;;;;18.13;7.90;;;;;;;6.97;100.00;102122.06;5095255;28;20057;-85
2023/04/16 03:48:23;;;;;;;18.08;8.32;;;;;;;6.96;100.00;102103.13;5093964;28;20109;-85
2023/04/16 03:50:49;;;;;;;16.83;7.33;;;;;;;6.97;100.00;102110.03;5094204;28;20372;-86
2023/04/16 03:53:14;;;;;;;17.90;7.27;;;;;;;7.03;100.00;102117.03;5094915;28;20043;-85
2023/04/16 03:55:41;;;;;;;16.55;7.20;;;;;;;7.02;100.00;102110.13;5094990;28;20046;-86
2023/04/16 03:58:06;;;;;;;16.10;6.97;;;;;;;7.06;100.00;102114.50;5094245;28;20023;-87
2023/04/16 04:00:31;;;;;;;15.03;6.97;;;;;;;7.04;100.00;102116.19;5095060;28;20028;-86
2023/04/16 04:02:56;;;;;;;17.27;8.00;;;;;;;7.03;100.00;102111.84;5094885;28;20032;-85
2023/04/16 04:05:22;;;;;;;13.70;6.60;;;;;;;7.07;100.00;102121.41;5094146;28;20384;-86
2023/04/16 04:07:47;;;;;;;18.43;8.20;;;;;;;7.08;100.00;102115.41;5094675;28;20028;-86
2023/04/16 04:10:13;;;;;;;16.05;7.05;;;;;;;7.08;100.00;102116.28;5095422;28;20024;-86
2023/04/16 04:12:38;;;;;;;14.40;6.27;;;;;;;7.08;100.00;102110.25;5094781;28;20035;-86
2023/04/16 04:15:04;;;;;;;15.67;7.93;;;;;;;7.10;100.00;102114.59;5096462;28;20388;-86
2023/04/16 04:17:29;;;;;;;15.80;7.73;;;;;;;7.13;100.00;102118.94;5094777;28;20085;-86
2023/04/16 04:19:54;;;;;;;14.43;7.07;;;;;;;7.14;100.00;102120.69;5093925;28;20462;-85
2023/04/16 04:22:20;;;;;;;15.93;7.13;;;;;;;7.12;100.00;102114.63;5125367;22;20052;-86
2023/04/16 04:24:45;;;;;;;12.57;6.97;;;;;;;7.15;100.00;102113.81;5053979;28;20025;-86
2023/04/16 04:27:10;;;;;;;14.77;6.90;;;;;;;7.09;100.00;102106.84;5054001;28;20033;-86
2023/04/16 04:29:36;;;;;;;17.70;8.20;;;;;;;7.19;100.00;102131.09;5054135;28;20025;-86
2023/04/16 04:32:10;;;;;;;17.73;8.23;;;;;;;7.15;100.00;102130.16;5109387;22;20056;-86
2023/04/16 04:34:35;;;;;;;15.93;7.30;;;;;;;7.16;100.00;102129.34;5049003;28;20033;-86
2023/04/16 04:37:00;;;;;;;17.20;7.70;;;;;;;7.11;100.00;102125.78;5054076;28;20499;-86
2023/04/16 04:39:26;;;;;;;19.55;8.23;;;;;;;7.09;100.00;102133.50;5053328;28;20021;-85
2023/04/16 04:41:51;;;;;;;20.08;8.73;;;;;;;7.06;100.00;102133.44;5049062;28;20128;-86
2023/04/16 04:44:16;;;;;;;18.13;8.80;;;;;;;7.06;100.00;102140.31;5054033;28;20028;-86
2023/04/16 04:46:42;;;;;;;15.50;7.70;;;;;;;7.06;100.00;102137.75;5053142;28;20054;-86
2023/04/16 04:49:07;;;;;;;17.83;7.75;;;;;;;7.06;100.00;102143.75;5053781;28;20024;-86
2023/04/16 04:51:32;;;;;;;15.83;7.27;;;;;;;7.08;100.00;102136.91;5053453;28;20017;-86
2023/04/16 04:53:58;;;;;;;16.40;7.40;;;;;;;7.08;100.00;102144.66;5053267;28;20385;-86
2023/04/16 04:56:26;;;;;;;19.52;8.63;;;;;;;7.04;100.00;102142.84;5053199;28;20021;-86
2023/04/16 04:58:51;;;;;;;15.55;7.38;;;;;;;7.07;100.00;102139.47;5053256;28;20457;-86
2023/04/16 05:01:19;;;;;;;18.03;8.97;;;;;;;7.01;100.00;102145.38;5053142;28;20083;-86
2023/04/16 05:03:45;;;;;;;18.00;8.15;;;;;;;7.03;100.00;102148.88;5053472;28;20032;-86
2023/04/16 05:06:10;;;;;;;20.10;8.70;;;;;;;7.03;100.00;102140.25;5053323;28;20025;-86
2023/04/16 05:08:35;;;;;;;17.08;7.57;;;;;;;7.03;100.00;102143.72;5052746;28;20104;-86
2023/04/16 05:11:04;;;;;;;20.33;8.67;;;;;;;7.02;100.00;102149.72;5053791;28;20065;-85
2023/04/16 05:13:29;;;;;;;19.45;8.60;;;;;;;6.94;100.00;102133.19;5053232;28;20052;-86
2023/04/16 05:15:55;;;;;;;18.27;8.83;;;;;;;7.01;100.00;102152.25;5052854;28;20049;-86
2023/04/16 05:18:20;;;;;;;19.27;9.00;;;;;;;6.95;100.00;102140.97;5053449;28;20028;-86
2023/04/16 05:20:45;;;;;;;19.17;8.90;;;;;;;6.91;100.00;102136.56;5053520;28;20377;-86
2023/04/16 05:23:10;;;;;;;18.30;8.33;;;;;;;6.93;100.00;102131.44;5053083;28;20029;-86
2023/04/16 05:25:36;;;;;;;19.10;8.73;;;;;;;6.94;100.00;102139.22;5052796;28;20021;-87
2023/04/16 05:28:01;;;;;;;15.63;7.80;;;;;;;7.03;100.00;102151.47;5053508;28;20017;-86
2023/04/16 05:30:29;;;;;;;19.17;8.23;;;;;;;7.05;100.00;102162.66;5052391;28;20055;-86
2023/04/16 05:32:54;;;;;;;21.65;10.20;;;;;;;7.01;100.00;102153.13;5053259;28;20417;-86
2023/04/16 05:35:19;;;;;;;17.17;7.90;;;;;;;6.95;100.00;102148.72;5051876;28;20029;-86
2023/04/16 05:37:45;;;;;;;19.90;8.82;;;;;;;7.03;100.00;102164.38;5053155;28;20052;-87
2023/04/16 05:40:12;;;;;;;19.10;8.60;;;;;;;6.99;100.00;102161.66;5052834;28;20021;-85
2023/04/16 05:42:37;;;;;;;18.48;8.27;;;;;;;7.01;100.00;102167.72;5052213;28;20021;-86
2023/04/16 05:45:03;;;;;;;15.10;7.30;;;;;;;7.04;100.00;102168.66;5053058;28;20102;-86
2023/04/16 05:47:29;;;;;;;17.37;7.67;;;;;;;7.08;100.00;102177.38;5052856;28;20117;-86
2023/04/16 05:49:54;;;;;;;20.05;8.82;;;;;;;7.03;100.00;102173.81;5052687;28;20061;-85
2023/04/16 05:52:19;;;;;;;18.43;7.73;;;;;;;7.09;100.00;102179.97;5052847;28;20045;-85
2023/04/16 05:54:44;;;;;;;20.87;9.20;;;;;;;7.07;100.00;102178.22;5052974;28;20432;-86
2023/04/16 05:57:10;;;;;;;20.03;9.37;;;;;;;7.07;100.00;102176.47;5052116;28;20033;-87
2023/04/16 05:59:35;;;;;;;18.98;9.57;;;;;;;7.08;100.00;102185.13;5051457;28;20416;-85
2023/04/16 06:02:01;;;;;;;22.25;10.02;;;;;;;7.07;100.00;102176.47;5052089;28;20428;-86
2023/04/16 06:04:26;;;;;;;22.23;11.03;;;;;;;7.02;100.00;102187.56;5052005;28;20029;-85
2023/04/16 06:06:51;;;;;;;22.63;11.10;;;;;;;7.06;100.00;102190.22;5051823;28;20096;-86
2023/04/16 06:09:23;;;;;;;20.37;9.63;;;;;;;7.06;100.00;102189.38;5052556;28;20024;-85
2023/04/16 06:11:49;;;;;;;23.35;11.40;;;;;;;7.05;100.00;102190.22;5055719;28;20435;-86
2023/04/16 06:14:14;;;;;;;23.30;11.23;;;;;;;7.06;100.00;102194.53;5056788;28;20021;-85
2023/04/16 06:16:39;;;;;;;23.70;11.33;;;;;;;7.00;100.00;102190.13;5056741;28;20037;-85
2023/04/16 06:19:04;;;;;;;23.60;11.63;;;;;;;7.02;100.00;102187.56;5056180;28;20028;-86
2023/04/16 06:21:30;;;;;;;22.77;10.93;;;;;;;7.05;100.00;102188.47;5056845;28;20028;-87
2023/04/16 06:23:56;;;;;;;21.07;10.13;;;;;;;7.03;100.00;102189.28;5056659;28;20373;-86
2023/04/16 06:26:21;;;;;;;21.70;9.87;;;;;;;7.03;100.00;102182.44;5055876;28;20013;-86
2023/04/16 06:28:46;;;;;;;21.58;10.25;;;;;;;7.06;100.00;102191.94;5056671;28;20493;-86
2023/04/16 06:31:12;;;;;;;22.17;10.57;;;;;;;7.10;100.00;102198.91;5050345;28;20065;-86
2023/04/16 06:33:37;;;;;;;21.50;11.17;;;;;;;7.08;100.00;102193.72;5035593;28;20025;-86
2023/04/16 06:36:02;;;;;;;23.80;11.17;;;;;;;7.07;100.00;102194.56;5035677;28;20089;-87
2023/04/16 06:38:27;;;;;;;24.40;10.87;;;;;;;7.13;100.00;102205.88;5035858;28;20450;-86
2023/04/16 06:40:53;;;;;;;22.60;10.43;;;;;;;7.10;100.00;102204.94;5036254;28;20017;-86
2023/04/16 06:43:18;;;;;;;24.33;11.70;;;;;;;7.06;100.00;102200.56;5036584;28;20088;-85
2023/04/16 06:45:44;;;;;;;24.03;11.43;;;;;;;7.06;100.00;102204.84;5035889;28;20493;-85
2023/04/16 06:48:09;;;;;;;23.10;10.00;;;;;;;7.07;100.00;102210.03;5036548;28;20029;-86
2023/04/16 06:50:34;;;;;;;25.53;12.03;;;;;;;7.11;100.00;102213.56;5036732;28;20470;-86
2023/04/16 06:53:00;;;;;;;22.10;10.43;;;;;;;7.13;100.00;102219.63;5036638;28;20056;-86
2023/04/16 06:55:25;;;;;;;21.80;10.47;;;;;;;7.12;100.00;102217.88;5038874;28;20025;-87
2023/04/16 06:57:52;;;;;;;24.60;11.48;;;;;;;7.14;100.00;102217.94;5037143;28;20069;-86
2023/04/16 07:00:35;;;;;;;22.10;10.43;;;;;;;7.07;100.00;102211.78;5029555;28;20407;-86
2023/04/16 07:03:10;;;;;;;24.75;11.00;;;;;;;7.13;100.00;102222.22;5036043;28;20450;-86
2023/04/16 07:05:41;;;;;;;22.63;10.45;;;;;;;7.13;100.00;102217.03;5035062;28;20462;-86
2023/04/16 07:08:06;;;;;;;22.80;10.07;;;;;;;7.16;100.00;102222.28;5035363;28;20377;-86
2023/04/16 07:10:32;;;;;;;19.80;9.03;;;;;;;7.25;100.00;102240.53;5035636;28;20021;-86
2023/04/16 07:12:57;;;;;;;21.48;9.32;;;;;;;7.29;100.00;102233.72;5035803;28;20037;-84
2023/04/16 07:15:37;;;;;;;20.67;8.50;;;;;;;7.30;100.00;102240.63;5033674;28;20031;-86
2023/04/16 07:18:03;;;;;;;24.95;11.52;;;;;;;7.26;100.00;102237.13;5035630;28;20385;-86
2023/04/16 07:20:37;;;;;;;22.40;11.27;;;;;;;7.21;100.00;102232.72;5035580;28;20036;-87
2023/04/16 07:23:08;;;;;;;22.75;10.73;;;;;;;7.32;100.00;102251.88;5035602;28;20032;-83
2023/04/16 07:25:49;;;;;;;25.83;11.82;;;;;;;7.22;100.00;102235.31;5035390;28;20100;-84
2023/04/16 07:28:17;;;;;;;24.20;12.13;;;;;;;7.21;100.00;102236.16;5034879;28;20029;-87
2023/04/16 07:30:42;;;;;;;26.02;12.32;;;;;;;7.29;100.00;102249.22;5036706;28;20025;-86
2023/04/16 07:33:33;;;;;;;27.33;13.60;;;;;;;7.33;100.00;102266.53;5055446;28;20033;-87
2023/04/16 07:35:58;;;;;;;27.05;12.23;;;;;;;7.32;100.00;102259.63;5051630;28;20049;-87
2023/04/16 07:38:23;;;;;;;25.00;12.93;;;;;;;7.36;100.00;102263.13;5049312;28;20523;-86
2023/04/16 07:40:55;;;;;;;24.83;12.23;;;;;;;7.34;100.00;102257.97;5055362;28;20025;-86
2023/04/16 07:43:21;;;;;;;27.02;13.07;;;;;;;7.34;100.00;102262.22;5054264;28;20075;-87
2023/04/16 07:45:46;;;;;;;27.03;13.00;;;;;;;7.36;100.00;102264.03;5055078;28;20025;-86
2023/04/16 07:48:14;;;;;;;23.17;11.37;;;;;;;7.40;100.00;102267.53;5054435;28;20040;-87
2023/04/16 07:50:42;;;;;;;24.23;11.27;;;;;;;7.44;100.00;102271.91;5053943;28;20048;-86
2023/04/16 07:53:07;;;;;;;24.85;11.38;;;;;;;7.47;100.00;102269.41;5055116;28;20381;-86
2023/04/16 07:55:32;;;;;;;26.47;12.33;;;;;;;7.49;100.00;102277.16;5055168;28;20024;-87
2023/04/16 07:57:58;;;;;;;24.95;11.55;;;;;;;7.50;100.00;102279.81;5054495;28;20112;-87
2023/04/16 08:00:23;;;;;;;24.07;12.20;;;;;;;7.52;100.00;102282.41;5054420;28;20033;-87
2023/04/16 08:02:49;;;;;;;25.97;12.80;;;;;;;7.49;100.00;102279.75;5055025;28;20032;-86
2023/04/16 08:05:14;;;;;;;30.47;14.50;;;;;;;7.49;100.00;102288.41;5050130;28;20131;-86
2023/04/16 08:07:39;;;;;;;27.10;12.87;;;;;;;7.48;100.00;102290.97;5054513;28;20025;-87
2023/04/16 08:10:05;;;;;;;28.67;14.17;;;;;;;7.49;100.00;102287.50;5054911;28;20028;-86
2023/04/16 08:12:31;;;;;;;28.37;13.77;;;;;;;7.48;100.00;102296.13;5054777;28;20385;-87
2023/04/16 08:14:56;;;;;;;29.05;13.95;;;;;;;7.45;100.00;102289.16;5054801;28;20047;-87
2023/04/16 08:17:21;;;;;;;31.43;14.57;;;;;;;7.46;100.00;102285.75;5053969;28;20450;-87
2023/04/16 08:19:46;;;;;;;26.50;12.13;;;;;;;7.51;100.00;102294.47;5054522;28;20458;-88
2023/04/16 08:22:12;;;;;;;27.73;12.63;;;;;;;7.60;100.00;102303.25;5054689;28;20036;-87
2023/04/16 08:24:38;;;;;;;24.63;12.03;;;;;;;7.62;100.00;102304.16;5053205;28;20151;-85
2023/04/16 08:27:04;;;;;;;23.17;10.80;;;;;;;7.64;100.00;102299.91;5054257;28;20089;-86
2023/04/16 08:29:29;;;;;;;27.93;12.57;;;;;;;7.65;100.00;102307.66;5054105;28;20025;-85
2023/04/16 08:31:55;;;;;;;28.17;13.57;;;;;;;7.69;100.00;102306.00;5053293;28;20051;-86
2023/04/16 08:34:38;;;;;;;26.20;12.07;;;;;;;7.69;100.00;102309.47;5052818;28;20079;-84
2023/04/16 08:37:03;;;;;;;24.50;11.40;;;;;;;7.63;100.00;102290.41;5053836;28;20063;-86
2023/04/16 08:39:29;;;;;;;24.90;11.93;;;;;;;7.75;100.00;102310.44;5053101;28;20383;-86
2023/04/16 08:41:57;;;;;;;23.20;11.20;;;;;;;7.80;100.00;102314.84;5053785;28;20029;-86
2023/04/16 08:44:30;;;;;;;25.77;12.52;;;;;;;7.81;100.00;102315.75;5053416;28;20029;-85
2023/04/16 08:46:57;;;;;;;28.23;12.48;;;;;;;7.82;100.00;102322.66;5054038;28;20465;-86
2023/04/16 08:49:26;;;;;;;24.48;11.32;;;;;;;7.85;100.00;102321.00;5050177;28;20029;-86
2023/04/16 08:51:53;;;;;;;24.02;11.45;;;;;;;7.87;100.00;102318.44;5055345;28;20025;-85
2023/04/16 08:54:45;;;;;;;21.13;9.85;;;;;;;7.95;100.00;102322.03;5072826;28;20025;-85
2023/04/16 08:57:13;;;;;;;24.83;11.35;;;;;;;8.01;100.00;102319.56;5052954;28;20045;-86
2023/04/16 08:59:39;;;;;;;24.38;11.90;;;;;;;8.03;100.00;102324.75;5052446;28;20067;-85
2023/04/16 09:02:05;;;;;;;25.80;12.43;;;;;;;8.03;100.00;102328.25;5053895;28;20369;-86
2023/04/16 09:04:31;;;;;;;29.02;13.55;;;;;;;8.01;100.00;102324.75;5053176;28;20616;-86
2023/04/16 09:06:57;;;;;;;25.53;12.50;;;;;;;8.03;100.00;102335.09;5053129;28;20121;-86
2023/04/16 09:09:25;;;;;;;27.10;13.00;;;;;;;8.04;100.00;102326.50;5054190;28;20032;-86
2023/04/16 09:11:51;;;;;;;25.70;12.80;;;;;;;8.04;100.00;102329.09;5053474;28;20504;-86
2023/04/16 09:14:17;;;;;;;25.25;11.80;;;;;;;8.11;100.00;102336.13;5050048;28;20032;-84
2023/04/16 09:16:47;;;;;;;25.73;12.20;;;;;;;8.13;100.00;102331.00;5043169;28;20024;-85
2023/04/16 09:19:14;;;;;;;23.05;11.13;;;;;;;8.17;100.00;102336.25;5051584;28;20043;-85
2023/04/16 09:21:40;;;;;;;22.20;10.77;;;;;;;8.23;100.00;102340.66;5047616;28;20515;-85
2023/04/16 09:24:06;;;;;;;;;;;;;;;8.31;100.00;102343.41;5052699;28;20024;-85
2023/04/16 09:26:32;;;;;;;22.05;9.65;;;;;;;8.34;100.00;102343.44;5069747;22;19956;-86
2023/04/16 09:28:58;;;;;;;21.57;9.63;;;;;;;8.42;100.00;102344.47;5062065;28;20115;-86
2023/04/16 09:32:00;;;;;;;18.73;8.70;;;;;;;8.44;100.00;102347.97;5062695;28;20053;-85
2023/04/16 09:35:13;;;;;;;21.23;9.77;;;;;;;8.47;100.00;102355.78;5066721;28;20044;-85
2023/04/16 09:37:38;;;;;;;18.75;8.52;;;;;;;8.49;100.00;102345.47;5064011;28;20029;-86
2023/04/16 09:40:04;;;;;;;15.80;6.93;;;;;;;8.53;100.00;102355.03;5062776;28;20366;-86
2023/04/16 09:46:28;;;;;;;25.27;12.30;;;;;;;8.45;100.00;102365.19;5060822;28;20040;-86
2023/04/16 09:48:53;;;;;;;24.85;12.10;;;;;;;8.38;100.00;102368.53;5062450;28;20032;-86
2023/04/16 09:51:25;;;;;;;24.60;11.97;;;;;;;8.31;100.00;102362.38;5063337;28;20021;-86
2023/04/16 09:53:53;;;;;;;25.83;13.18;;;;;;;8.32;100.00;102371.88;5060826;28;20173;-86
2023/04/16 09:56:23;;;;;;;21.67;10.95;;;;;;;8.29;100.00;102364.03;5058750;28;20475;-86
2023/04/16 10:01:25;;;;;;;24.35;11.75;;;;;;;8.32;100.00;102358.09;5070757;22;20060;-87
2023/04/16 10:03:55;;;;;;;25.58;12.60;;;;;;;8.26;100.00;102345.91;5062846;28;20047;-88
2023/04/16 10:06:30;;;;;;;24.58;11.98;;;;;;;8.36;100.00;102367.63;5069176;28;20025;-87
2023/04/16 10:09:30;;;;;;;27.05;13.10;;;;;;;8.41;100.00;102376.34;5069170;28;20099;-87
2023/04/16 10:11:56;;;;;;;24.10;11.35;;;;;;;8.42;100.00;102372.03;5077509;23;20553;-87
2023/04/16 10:14:21;;;;;;;27.17;13.03;;;;;;;8.39;100.00;102367.69;5091971;28;20028;-87
2023/04/16 10:16:54;;;;;;;25.77;13.30;;;;;;;8.41;100.00;102366.00;5091443;28;20016;-87
2023/04/16 10:19:20;;;;;;;24.77;12.48;;;;;;;8.40;100.00;102361.66;5089038;28;20460;-87
2023/04/16 10:21:46;;;;;;;27.77;14.17;;;;;;;8.44;100.00;102368.66;5091333;22;20048;-87
2023/04/16 10:24:34;;;;;;;27.05;13.82;;;;;;;8.49;100.00;102379.97;5068592;28;21003;-86
2023/04/16 10:27:00;;;;;;;22.98;12.05;;;;;;;8.49;100.00;102368.78;5076674;28;20067;-86
2023/04/16 10:29:35;;;;;;;25.23;12.63;;;;;;;8.49;100.00;102379.13;5069537;28;20024;-85
2023/04/16 10:32:11;;;;;;;26.63;13.27;;;;;;;8.48;100.00;102367.03;5067588;28;20036;-85
2023/04/16 10:34:36;;;;;;;21.65;11.18;;;;;;;8.62;100.00;102380.19;5055385;28;20074;-86
2023/04/16 10:37:01;;;;;;;19.77;9.30;;;;;;;8.68;100.00;102385.47;5077701;23;20036;-85
2023/04/16 10:39:28;;;;;;;17.57;8.30;;;;;;;8.75;100.00;102391.63;5088337;28;20077;-86
2023/04/16 10:42:13;;;;;;;17.98;8.18;;;;;;;8.77;100.00;102390.81;5087808;28;20024;-85
2023/04/16 10:44:39;;;;;;;20.63;9.27;;;;;;;8.79;100.00;102390.84;5082687;28;20024;-85
2023/04/16 10:47:12;;;;;;;18.98;9.07;;;;;;;8.80;100.00;102390.84;5091805;28;20028;-85
2023/04/16 10:49:38;;;;;;;20.60;9.43;;;;;;;8.82;100.00;102388.31;5084281;28;20501;-88
2023/04/16 10:52:17;;;;;;;17.03;7.90;;;;;;;8.80;100.00;102385.69;5076701;28;20116;-86
2023/04/16 10:54:43;;;;;;;18.90;8.20;;;;;;;8.84;100.00;102385.75;5090959;28;20406;-86
2023/04/16 10:57:15;;;;;;;18.33;8.40;;;;;;;8.89;100.00;102390.16;5101804;28;20031;-87
2023/04/16 10:59:42;;;;;;;19.55;9.13;;;;;;;8.91;100.00;102392.75;5096652;28;20735;-85
2023/04/16 11:02:16;;;;;;;19.52;8.73;;;;;;;8.89;100.00;102384.97;5095789;28;20487;-86
2023/04/16 11:04:43;;;;;;;22.80;10.95;;;;;;;8.89;100.00;102392.75;5079974;28;20016;-86
2023/04/16 11:07:18;;;;;;;23.08;11.52;;;;;;;8.87;100.00;102386.66;5092597;28;20024;-86
2023/04/16 11:10:05;;;;;;;21.80;11.27;;;;;;;8.86;100.00;102384.06;5107397;28;20107;-86
2023/04/16 11:12:38;;;;;;;22.10;10.65;;;;;;;8.88;100.00;102384.97;5103231;28;20031;-86
2023/04/16 11:15:06;;;;;;;19.60;9.05;;;;;;;8.93;100.00;102376.41;5101005;28;20023;-87
2023/04/16 11:17:35;;;;;;;20.25;9.55;;;;;;;8.96;100.00;102379.03;5105532;28;20051;-86
2023/04/16 11:20:00;;;;;;;23.45;12.20;;;;;;;8.97;100.00;102377.34;5098363;28;20458;-85
2023/04/16 11:22:26;;;;;;;22.33;11.43;;;;;;;8.90;100.00;102370.28;5098074;28;20099;-86
2023/04/16 11:24:55;;;;;;;20.87;10.60;;;;;;;8.90;100.00;102370.28;5099350;28;20058;-86